sensor_id;sensor_type;location;lat;lon;timestamp;temperature;humidity
37998;DHT22;24079;51.824;4.682;2023-12-29T00:02:21;11.20;99.90
37998;DHT22;24079;51.824;4.682;2023-12-29T00:04:47;11.20;99.90
37998;DHT22;24079;51.824;4.682;2023-12-29T00:07:13;11.30;99.90
37998;DHT22;24079;51.824;4.682;2023-12-29T00:09:39;11.30;99.90
37998;DHT22;24079;51.824;4.682;2023-12-29T00:12:07;11.40;99.90
37998;DHT22;24079;51.824;4.682;2023-12-29T00:14:36;11.40;99.90
37998;DHT22;24079;51.824;4.682;2023-12-29T00:17:03;11.40;99.90
37998;DHT22;24079;51.824;4.682;2023-12-29T00:19:29;11.40;99.90
37998;DHT22;24079;51.824;4.682;2023-12-29T00:21:55;11.50;99.90
37998;DHT22;24079;51.824;4.682;2023-12-29T00:24:21;11.40;99.90
37998;DHT22;24079;51.824;4.682;2023-12-29T00:26:47;11.40;99.90
37998;DHT22;24079;51.824;4.682;2023-12-29T00:29:14;11.40;99.90
37998;DHT22;24079;51.824;4.682;2023-12-29T00:31:41;11.40;99.90
37998;DHT22;24079;51.824;4.682;2023-12-29T00:34:07;11.40;99.90
37998;DHT22;24079;51.824;4.682;2023-12-29T00:36:33;11.30;99.90
37998;DHT22;24079;51.824;4.682;2023-12-29T00:38:59;11.30;99.90
37998;DHT22;24079;51.824;4.682;2023-12-29T00:41:25;11.30;99.90
37998;DHT22;24079;51.824;4.682;2023-12-29T00:43:51;11.20;99.90
37998;DHT22;24079;51.824;4.682;2023-12-29T00:46:17;11.20;99.90
37998;DHT22;24079;51.824;4.682;2023-12-29T00:48:43;11.10;99.90
37998;DHT22;24079;51.824;4.682;2023-12-29T00:51:09;11.10;99.90
37998;DHT22;24079;51.824;4.682;2023-12-29T00:53:36;11.10;99.90
37998;DHT22;24079;51.824;4.682;2023-12-29T00:56:02;11.10;99.90
37998;DHT22;24079;51.824;4.682;2023-12-29T00:58:28;11.10;99.90
37998;DHT22;24079;51.824;4.682;2023-12-29T01:00:54;11.10;99.90
37998;DHT22;24079;51.824;4.682;2023-12-29T01:03:20;11.10;99.90
37998;DHT22;24079;51.824;4.682;2023-12-29T01:05:46;11.00;99.90
37998;DHT22;24079;51.824;4.682;2023-12-29T01:08:12;11.00;99.90
37998;DHT22;24079;51.824;4.682;2023-12-29T01:10:38;11.00;99.90
37998;DHT22;24079;51.824;4.682;2023-12-29T01:13:04;11.00;99.90
37998;DHT22;24079;51.824;4.682;2023-12-29T01:15:30;11.10;99.90
37998;DHT22;24079;51.824;4.682;2023-12-29T01:17:56;11.00;99.90
37998;DHT22;24079;51.824;4.682;2023-12-29T01:20:22;11.10;99.90
37998;DHT22;24079;51.824;4.682;2023-12-29T01:22:48;11.10;99.90
37998;DHT22;24079;51.824;4.682;2023-12-29T01:25:14;11.10;99.90
37998;DHT22;24079;51.824;4.682;2023-12-29T01:27:44;11.10;99.90
37998;DHT22;24079;51.824;4.682;2023-12-29T01:30:10;11.00;99.90
37998;DHT22;24079;51.824;4.682;2023-12-29T01:32:36;11.00;99.90
37998;DHT22;24079;51.824;4.682;2023-12-29T01:35:02;10.90;99.90
37998;DHT22;24079;51.824;4.682;2023-12-29T01:37:28;10.90;99.90
37998;DHT22;24079;51.824;4.682;2023-12-29T01:39:54;10.90;99.90
37998;DHT22;24079;51.824;4.682;2023-12-29T01:42:20;10.90;99.90
37998;DHT22;24079;51.824;4.682;2023-12-29T01:44:47;10.90;99.90
37998;DHT22;24079;51.824;4.682;2023-12-29T01:47:18;10.90;99.90
37998;DHT22;24079;51.824;4.682;2023-12-29T01:49:45;10.90;99.90
37998;DHT22;24079;51.824;4.682;2023-12-29T01:52:12;10.80;99.90
37998;DHT22;24079;51.824;4.682;2023-12-29T01:54:39;10.70;99.90
37998;DHT22;24079;51.824;4.682;2023-12-29T01:57:06;10.70;99.90
37998;DHT22;24079;51.824;4.682;2023-12-29T01:59:34;10.70;99.90
37998;DHT22;24079;51.824;4.682;2023-12-29T02:02:01;10.60;99.90
37998;DHT22;24079;51.824;4.682;2023-12-29T02:04:28;10.60;99.90
37998;DHT22;24079;51.824;4.682;2023-12-29T02:06:54;10.60;99.90
37998;DHT22;24079;51.824;4.682;2023-12-29T02:09:21;10.70;99.90
37998;DHT22;24079;51.824;4.682;2023-12-29T02:11:47;10.70;99.90
37998;DHT22;24079;51.824;4.682;2023-12-29T02:14:17;10.70;99.90
37998;DHT22;24079;51.824;4.682;2023-12-29T02:19:40;10.70;99.90
37998;DHT22;24079;51.824;4.682;2023-12-29T02:22:07;10.80;99.90
37998;DHT22;24079;51.824;4.682;2023-12-29T02:24:34;10.80;99.90
37998;DHT22;24079;51.824;4.682;2023-12-29T02:29:40;10.80;99.90
37998;DHT22;24079;51.824;4.682;2023-12-29T02:32:11;10.80;99.90
37998;DHT22;24079;51.824;4.682;2023-12-29T02:34:40;10.80;99.90
37998;DHT22;24079;51.824;4.682;2023-12-29T02:37:08;10.80;99.90
37998;DHT22;24079;51.824;4.682;2023-12-29T02:39:35;10.90;99.90
37998;DHT22;24079;51.824;4.682;2023-12-29T02:42:01;10.90;99.90
37998;DHT22;24079;51.824;4.682;2023-12-29T02:44:27;10.90;99.90
37998;DHT22;24079;51.824;4.682;2023-12-29T02:46:53;10.90;99.90
37998;DHT22;24079;51.824;4.682;2023-12-29T02:49:19;10.90;99.90
37998;DHT22;24079;51.824;4.682;2023-12-29T02:51:46;10.90;99.90
37998;DHT22;24079;51.824;4.682;2023-12-29T02:54:13;10.90;99.90
37998;DHT22;24079;51.824;4.682;2023-12-29T02:56:39;10.90;99.90
37998;DHT22;24079;51.824;4.682;2023-12-29T02:59:05;10.90;99.90
37998;DHT22;24079;51.824;4.682;2023-12-29T03:01:31;10.90;99.90
37998;DHT22;24079;51.824;4.682;2023-12-29T03:03:57;10.90;99.90
37998;DHT22;24079;51.824;4.682;2023-12-29T03:06:23;10.90;99.90
37998;DHT22;24079;51.824;4.682;2023-12-29T03:08:50;10.90;99.90
37998;DHT22;24079;51.824;4.682;2023-12-29T03:11:16;10.90;99.90
37998;DHT22;24079;51.824;4.682;2023-12-29T03:13:42;10.90;99.90
37998;DHT22;24079;51.824;4.682;2023-12-29T03:16:09;10.90;99.90
37998;DHT22;24079;51.824;4.682;2023-12-29T03:18:35;10.90;99.90
37998;DHT22;24079;51.824;4.682;2023-12-29T03:21:05;10.90;99.90
37998;DHT22;24079;51.824;4.682;2023-12-29T03:23:32;10.90;99.90
37998;DHT22;24079;51.824;4.682;2023-12-29T03:25:58;10.90;99.90
37998;DHT22;24079;51.824;4.682;2023-12-29T03:28:24;10.90;99.90
37998;DHT22;24079;51.824;4.682;2023-12-29T03:30:50;10.90;99.90
37998;DHT22;24079;51.824;4.682;2023-12-29T03:33:16;10.90;99.90
37998;DHT22;24079;51.824;4.682;2023-12-29T03:35:42;10.90;99.90
37998;DHT22;24079;51.824;4.682;2023-12-29T03:38:08;10.90;99.90
37998;DHT22;24079;51.824;4.682;2023-12-29T03:40:34;10.90;99.90
37998;DHT22;24079;51.824;4.682;2023-12-29T03:43:00;10.90;99.90
37998;DHT22;24079;51.824;4.682;2023-12-29T03:45:27;10.90;99.90
37998;DHT22;24079;51.824;4.682;2023-12-29T03:47:52;10.80;99.90
37998;DHT22;24079;51.824;4.682;2023-12-29T03:50:19;10.80;99.90
37998;DHT22;24079;51.824;4.682;2023-12-29T03:52:45;10.80;99.90
37998;DHT22;24079;51.824;4.682;2023-12-29T03:55:11;10.80;99.90
37998;DHT22;24079;51.824;4.682;2023-12-29T03:57:37;10.90;99.90
37998;DHT22;24079;51.824;4.682;2023-12-29T04:00:04;10.80;99.90
37998;DHT22;24079;51.824;4.682;2023-12-29T04:02:30;10.80;99.90
37998;DHT22;24079;51.824;4.682;2023-12-29T04:04:56;10.90;99.90
37998;DHT22;24079;51.824;4.682;2023-12-29T04:07:22;10.90;99.90
37998;DHT22;24079;51.824;4.682;2023-12-29T04:09:48;10.90;99.90
37998;DHT22;24079;51.824;4.682;2023-12-29T04:12:15;10.90;99.90
37998;DHT22;24079;51.824;4.682;2023-12-29T04:14:41;10.90;99.90
37998;DHT22;24079;51.824;4.682;2023-12-29T04:17:07;10.90;99.90
37998;DHT22;24079;51.824;4.682;2023-12-29T04:19:40;10.90;99.90
37998;DHT22;24079;51.824;4.682;2023-12-29T04:22:07;10.90;99.90
37998;DHT22;24079;51.824;4.682;2023-12-29T04:24:33;10.90;99.90
37998;DHT22;24079;51.824;4.682;2023-12-29T04:27:00;10.90;99.90
37998;DHT22;24079;51.824;4.682;2023-12-29T04:29:26;10.80;99.90
37998;DHT22;24079;51.824;4.682;2023-12-29T04:31:52;10.80;99.90
37998;DHT22;24079;51.824;4.682;2023-12-29T04:34:18;10.80;99.90
37998;DHT22;24079;51.824;4.682;2023-12-29T04:36:44;10.80;99.90
37998;DHT22;24079;51.824;4.682;2023-12-29T04:39:10;10.80;99.90
37998;DHT22;24079;51.824;4.682;2023-12-29T04:41:36;10.80;99.90
37998;DHT22;24079;51.824;4.682;2023-12-29T04:44:02;10.80;99.90
37998;DHT22;24079;51.824;4.682;2023-12-29T04:46:28;10.80;99.90
37998;DHT22;24079;51.824;4.682;2023-12-29T04:48:54;10.80;99.90
37998;DHT22;24079;51.824;4.682;2023-12-29T04:51:20;10.80;99.90
37998;DHT22;24079;51.824;4.682;2023-12-29T04:53:46;10.80;99.90
37998;DHT22;24079;51.824;4.682;2023-12-29T04:56:12;10.80;99.90
37998;DHT22;24079;51.824;4.682;2023-12-29T04:58:38;10.80;99.90
37998;DHT22;24079;51.824;4.682;2023-12-29T05:01:04;10.80;99.90
37998;DHT22;24079;51.824;4.682;2023-12-29T05:03:30;10.80;99.90
37998;DHT22;24079;51.824;4.682;2023-12-29T05:05:56;10.80;99.90
37998;DHT22;24079;51.824;4.682;2023-12-29T05:08:22;10.80;99.90
37998;DHT22;24079;51.824;4.682;2023-12-29T05:10:48;10.80;99.90
37998;DHT22;24079;51.824;4.682;2023-12-29T05:13:14;10.80;99.90
37998;DHT22;24079;51.824;4.682;2023-12-29T05:15:40;10.80;99.90
37998;DHT22;24079;51.824;4.682;2023-12-29T05:18:06;10.80;99.90
37998;DHT22;24079;51.824;4.682;2023-12-29T05:20:33;10.80;99.90
37998;DHT22;24079;51.824;4.682;2023-12-29T05:22:59;10.80;99.90
37998;DHT22;24079;51.824;4.682;2023-12-29T05:25:25;10.70;99.90
37998;DHT22;24079;51.824;4.682;2023-12-29T05:27:51;10.70;99.90
37998;DHT22;24079;51.824;4.682;2023-12-29T05:30:17;10.70;99.90
37998;DHT22;24079;51.824;4.682;2023-12-29T05:32:43;10.70;99.90
37998;DHT22;24079;51.824;4.682;2023-12-29T05:35:09;10.80;99.90
37998;DHT22;24079;51.824;4.682;2023-12-29T05:37:36;10.70;99.90
37998;DHT22;24079;51.824;4.682;2023-12-29T05:40:02;10.70;99.90
37998;DHT22;24079;51.824;4.682;2023-12-29T05:42:28;10.70;99.90
37998;DHT22;24079;51.824;4.682;2023-12-29T05:44:54;10.70;99.90
37998;DHT22;24079;51.824;4.682;2023-12-29T05:47:21;10.70;99.90
37998;DHT22;24079;51.824;4.682;2023-12-29T05:49:47;10.70;99.90
37998;DHT22;24079;51.824;4.682;2023-12-29T05:52:13;10.70;99.90
37998;DHT22;24079;51.824;4.682;2023-12-29T05:54:39;10.70;99.90
37998;DHT22;24079;51.824;4.682;2023-12-29T05:57:05;10.70;99.90
37998;DHT22;24079;51.824;4.682;2023-12-29T05:59:31;10.70;99.90
37998;DHT22;24079;51.824;4.682;2023-12-29T06:01:57;10.70;99.90
37998;DHT22;24079;51.824;4.682;2023-12-29T06:04:24;10.80;99.90
37998;DHT22;24079;51.824;4.682;2023-12-29T06:06:50;10.80;99.90
37998;DHT22;24079;51.824;4.682;2023-12-29T06:09:16;10.80;99.90
37998;DHT22;24079;51.824;4.682;2023-12-29T06:11:42;10.80;99.90
37998;DHT22;24079;51.824;4.682;2023-12-29T06:14:09;10.80;99.90
37998;DHT22;24079;51.824;4.682;2023-12-29T06:16:36;10.80;99.90
37998;DHT22;24079;51.824;4.682;2023-12-29T06:19:02;10.80;99.90
37998;DHT22;24079;51.824;4.682;2023-12-29T06:21:28;10.70;99.90
37998;DHT22;24079;51.824;4.682;2023-12-29T06:23:54;10.80;99.90
37998;DHT22;24079;51.824;4.682;2023-12-29T06:26:20;10.70;99.90
37998;DHT22;24079;51.824;4.682;2023-12-29T06:28:48;10.70;99.90
37998;DHT22;24079;51.824;4.682;2023-12-29T06:31:16;10.60;99.90
37998;DHT22;24079;51.824;4.682;2023-12-29T06:33:43;10.50;99.90
37998;DHT22;24079;51.824;4.682;2023-12-29T06:36:10;10.50;99.90
37998;DHT22;24079;51.824;4.682;2023-12-29T06:38:36;10.50;99.90
37998;DHT22;24079;51.824;4.682;2023-12-29T06:41:03;10.50;99.90
37998;DHT22;24079;51.824;4.682;2023-12-29T06:43:30;10.50;99.90
37998;DHT22;24079;51.824;4.682;2023-12-29T06:45:56;10.50;99.90
37998;DHT22;24079;51.824;4.682;2023-12-29T06:48:22;10.50;99.90
37998;DHT22;24079;51.824;4.682;2023-12-29T06:50:48;10.40;99.90
37998;DHT22;24079;51.824;4.682;2023-12-29T06:53:15;10.40;99.90
37998;DHT22;24079;51.824;4.682;2023-12-29T06:55:41;10.40;99.90
37998;DHT22;24079;51.824;4.682;2023-12-29T06:58:07;10.30;99.90
37998;DHT22;24079;51.824;4.682;2023-12-29T07:00:33;10.30;99.90
37998;DHT22;24079;51.824;4.682;2023-12-29T07:03:02;10.30;99.90
37998;DHT22;24079;51.824;4.682;2023-12-29T07:05:29;10.40;99.90
37998;DHT22;24079;51.824;4.682;2023-12-29T07:07:55;10.40;99.90
37998;DHT22;24079;51.824;4.682;2023-12-29T07:10:21;10.40;99.90
37998;DHT22;24079;51.824;4.682;2023-12-29T07:12:47;10.40;99.90
37998;DHT22;24079;51.824;4.682;2023-12-29T07:15:13;10.40;99.90
37998;DHT22;24079;51.824;4.682;2023-12-29T07:17:40;10.40;99.90
37998;DHT22;24079;51.824;4.682;2023-12-29T07:20:06;10.50;99.90
37998;DHT22;24079;51.824;4.682;2023-12-29T07:22:33;10.50;99.90
37998;DHT22;24079;51.824;4.682;2023-12-29T07:24:59;10.50;99.90
37998;DHT22;24079;51.824;4.682;2023-12-29T07:27:26;10.50;99.90
37998;DHT22;24079;51.824;4.682;2023-12-29T07:29:52;10.50;99.90
37998;DHT22;24079;51.824;4.682;2023-12-29T07:32:18;10.50;99.90
37998;DHT22;24079;51.824;4.682;2023-12-29T07:34:45;10.50;99.90
37998;DHT22;24079;51.824;4.682;2023-12-29T07:37:11;10.50;99.90
37998;DHT22;24079;51.824;4.682;2023-12-29T07:39:37;10.60;99.90
37998;DHT22;24079;51.824;4.682;2023-12-29T07:42:04;10.60;99.90
37998;DHT22;24079;51.824;4.682;2023-12-29T07:44:30;10.60;99.90
37998;DHT22;24079;51.824;4.682;2023-12-29T07:46:59;10.60;99.90
37998;DHT22;24079;51.824;4.682;2023-12-29T07:49:25;10.60;99.90
37998;DHT22;24079;51.824;4.682;2023-12-29T07:51:52;10.60;99.90
37998;DHT22;24079;51.824;4.682;2023-12-29T07:54:18;10.60;99.90
37998;DHT22;24079;51.824;4.682;2023-12-29T07:56:44;10.60;99.90
37998;DHT22;24079;51.824;4.682;2023-12-29T07:59:10;10.60;99.90
37998;DHT22;24079;51.824;4.682;2023-12-29T08:01:36;10.70;99.90
37998;DHT22;24079;51.824;4.682;2023-12-29T08:04:04;10.70;99.90
37998;DHT22;24079;51.824;4.682;2023-12-29T08:06:30;10.70;99.90
37998;DHT22;24079;51.824;4.682;2023-12-29T08:08:56;10.70;99.90
37998;DHT22;24079;51.824;4.682;2023-12-29T08:11:22;10.70;99.90
37998;DHT22;24079;51.824;4.682;2023-12-29T08:13:48;10.70;99.90
37998;DHT22;24079;51.824;4.682;2023-12-29T08:16:15;10.70;99.90
37998;DHT22;24079;51.824;4.682;2023-12-29T08:18:43;10.70;99.90
37998;DHT22;24079;51.824;4.682;2023-12-29T08:21:16;10.70;99.90
37998;DHT22;24079;51.824;4.682;2023-12-29T08:23:44;10.70;99.90
37998;DHT22;24079;51.824;4.682;2023-12-29T08:26:10;10.80;99.90
37998;DHT22;24079;51.824;4.682;2023-12-29T08:28:36;10.70;99.90
37998;DHT22;24079;51.824;4.682;2023-12-29T08:31:02;10.80;99.90
37998;DHT22;24079;51.824;4.682;2023-12-29T08:33:28;10.70;99.90
37998;DHT22;24079;51.824;4.682;2023-12-29T08:35:54;10.80;99.90
37998;DHT22;24079;51.824;4.682;2023-12-29T08:38:26;10.70;99.90
37998;DHT22;24079;51.824;4.682;2023-12-29T08:40:53;10.80;99.90
37998;DHT22;24079;51.824;4.682;2023-12-29T08:43:19;10.80;99.90
37998;DHT22;24079;51.824;4.682;2023-12-29T08:45:47;10.80;99.90
37998;DHT22;24079;51.824;4.682;2023-12-29T08:48:14;10.80;99.90
37998;DHT22;24079;51.824;4.682;2023-12-29T08:50:40;10.90;99.90
37998;DHT22;24079;51.824;4.682;2023-12-29T08:53:05;10.90;99.90
37998;DHT22;24079;51.824;4.682;2023-12-29T08:55:31;10.90;99.90
37998;DHT22;24079;51.824;4.682;2023-12-29T08:57:57;10.90;99.90
37998;DHT22;24079;51.824;4.682;2023-12-29T09:00:23;10.90;99.90
37998;DHT22;24079;51.824;4.682;2023-12-29T09:02:49;10.90;99.90
37998;DHT22;24079;51.824;4.682;2023-12-29T09:05:14;10.90;99.90
37998;DHT22;24079;51.824;4.682;2023-12-29T09:07:40;11.00;99.90
37998;DHT22;24079;51.824;4.682;2023-12-29T09:10:06;11.00;99.90
37998;DHT22;24079;51.824;4.682;2023-12-29T09:12:37;11.00;99.90
37998;DHT22;24079;51.824;4.682;2023-12-29T09:15:04;11.00;99.90
37998;DHT22;24079;51.824;4.682;2023-12-29T09:17:30;11.00;99.90
37998;DHT22;24079;51.824;4.682;2023-12-29T09:19:56;11.00;99.90
37998;DHT22;24079;51.824;4.682;2023-12-29T09:22:21;11.10;99.90
37998;DHT22;24079;51.824;4.682;2023-12-29T09:24:47;11.00;99.90
37998;DHT22;24079;51.824;4.682;2023-12-29T09:27:13;11.10;99.90
37998;DHT22;24079;51.824;4.682;2023-12-29T09:29:39;11.10;99.90
37998;DHT22;24079;51.824;4.682;2023-12-29T09:32:09;11.10;99.90
37998;DHT22;24079;51.824;4.682;2023-12-29T09:34:35;11.20;99.90
37998;DHT22;24079;51.824;4.682;2023-12-29T09:37:01;11.10;99.90
37998;DHT22;24079;51.824;4.682;2023-12-29T09:39:28;11.10;99.90
37998;DHT22;24079;51.824;4.682;2023-12-29T09:41:59;11.20;99.90
37998;DHT22;24079;51.824;4.682;2023-12-29T09:44:31;11.20;99.90
37998;DHT22;24079;51.824;4.682;2023-12-29T09:47:01;11.20;99.90
37998;DHT22;24079;51.824;4.682;2023-12-29T09:49:37;11.20;99.90
37998;DHT22;24079;51.824;4.682;2023-12-29T09:52:23;11.20;99.90
37998;DHT22;24079;51.824;4.682;2023-12-29T09:54:51;11.30;99.90
37998;DHT22;24079;51.824;4.682;2023-12-29T09:57:18;11.20;99.90
37998;DHT22;24079;51.824;4.682;2023-12-29T09:59:44;11.30;99.90
37998;DHT22;24079;51.824;4.682;2023-12-29T10:02:14;11.30;99.90
37998;DHT22;24079;51.824;4.682;2023-12-29T10:04:44;11.30;99.90
37998;DHT22;24079;51.824;4.682;2023-12-29T10:07:15;11.30;99.90
37998;DHT22;24079;51.824;4.682;2023-12-29T10:09:45;11.30;99.90
37998;DHT22;24079;51.824;4.682;2023-12-29T10:12:13;11.20;99.90
37998;DHT22;24079;51.824;4.682;2023-12-29T10:15:06;11.30;99.90
37998;DHT22;24079;51.824;4.682;2023-12-29T10:20:41;11.20;99.90
37998;DHT22;24079;51.824;4.682;2023-12-29T10:23:15;11.30;99.90
37998;DHT22;24079;51.824;4.682;2023-12-29T10:25:42;11.30;99.90
37998;DHT22;24079;51.824;4.682;2023-12-29T10:28:10;11.30;99.90
37998;DHT22;24079;51.824;4.682;2023-12-29T10:30:36;11.30;99.90
37998;DHT22;24079;51.824;4.682;2023-12-29T10:33:04;11.30;99.90
37998;DHT22;24079;51.824;4.682;2023-12-29T10:35:30;11.40;99.90
37998;DHT22;24079;51.824;4.682;2023-12-29T10:38:10;11.40;99.90
37998;DHT22;24079;51.824;4.682;2023-12-29T10:40:36;11.40;99.90
37998;DHT22;24079;51.824;4.682;2023-12-29T10:43:02;11.40;99.90
37998;DHT22;24079;51.824;4.682;2023-12-29T10:45:33;11.50;99.90
37998;DHT22;24079;51.824;4.682;2023-12-29T10:48:00;11.50;99.90
37998;DHT22;24079;51.824;4.682;2023-12-29T10:50:26;11.50;99.90
37998;DHT22;24079;51.824;4.682;2023-12-29T10:53:14;11.40;99.90
37998;DHT22;24079;51.824;4.682;2023-12-29T10:55:42;11.40;99.90
37998;DHT22;24079;51.824;4.682;2023-12-29T10:58:08;11.40;99.90
37998;DHT22;24079;51.824;4.682;2023-12-29T11:00:34;11.50;99.90
37998;DHT22;24079;51.824;4.682;2023-12-29T11:02:59;11.60;99.90
37998;DHT22;24079;51.824;4.682;2023-12-29T11:05:26;11.50;99.90
37998;DHT22;24079;51.824;4.682;2023-12-29T11:07:53;11.60;99.90
37998;DHT22;24079;51.824;4.682;2023-12-29T11:10:20;11.50;99.90
37998;DHT22;24079;51.824;4.682;2023-12-29T11:12:47;11.60;99.90
37998;DHT22;24079;51.824;4.682;2023-12-29T11:15:14;11.60;99.90
37998;DHT22;24079;51.824;4.682;2023-12-29T11:17:42;11.70;99.90
37998;DHT22;24079;51.824;4.682;2023-12-29T11:20:16;11.70;99.90
37998;DHT22;24079;51.824;4.682;2023-12-29T11:22:42;11.70;99.90
37998;DHT22;24079;51.824;4.682;2023-12-29T11:25:09;11.80;99.90
37998;DHT22;24079;51.824;4.682;2023-12-29T11:27:35;11.70;99.90
37998;DHT22;24079;51.824;4.682;2023-12-29T11:30:02;11.80;99.90
37998;DHT22;24079;51.824;4.682;2023-12-29T11:32:55;11.80;99.90
37998;DHT22;24079;51.824;4.682;2023-12-29T11:35:34;11.80;99.90
37998;DHT22;24079;51.824;4.682;2023-12-29T11:43:20;11.90;99.90
37998;DHT22;24079;51.824;4.682;2023-12-29T11:45:46;11.90;99.90
37998;DHT22;24079;51.824;4.682;2023-12-29T11:48:12;11.90;99.90
37998;DHT22;24079;51.824;4.682;2023-12-29T11:50:58;11.90;99.90
37998;DHT22;24079;51.824;4.682;2023-12-29T11:53:31;11.90;99.90
37998;DHT22;24079;51.824;4.682;2023-12-29T11:55:58;11.90;99.90
37998;DHT22;24079;51.824;4.682;2023-12-29T11:58:27;12.00;99.90
37998;DHT22;24079;51.824;4.682;2023-12-29T12:00:56;12.00;99.90
37998;DHT22;24079;51.824;4.682;2023-12-29T12:03:26;12.00;99.90
37998;DHT22;24079;51.824;4.682;2023-12-29T12:05:54;12.00;99.90
37998;DHT22;24079;51.824;4.682;2023-12-29T12:08:35;12.00;99.90
37998;DHT22;24079;51.824;4.682;2023-12-29T12:14:01;12.00;99.90
37998;DHT22;24079;51.824;4.682;2023-12-29T12:19:12;11.90;99.90
37998;DHT22;24079;51.824;4.682;2023-12-29T12:21:39;11.90;99.90
37998;DHT22;24079;51.824;4.682;2023-12-29T12:24:06;12.00;99.90
37998;DHT22;24079;51.824;4.682;2023-12-29T12:26:33;12.00;99.90
37998;DHT22;24079;51.824;4.682;2023-12-29T12:29:00;12.00;99.90
37998;DHT22;24079;51.824;4.682;2023-12-29T12:31:26;12.00;99.90
37998;DHT22;24079;51.824;4.682;2023-12-29T12:33:56;12.00;99.90
37998;DHT22;24079;51.824;4.682;2023-12-29T12:36:23;12.00;99.90
37998;DHT22;24079;51.824;4.682;2023-12-29T12:41:18;12.00;99.90
37998;DHT22;24079;51.824;4.682;2023-12-29T12:44:13;12.00;99.90
37998;DHT22;24079;51.824;4.682;2023-12-29T12:46:59;12.00;99.90
37998;DHT22;24079;51.824;4.682;2023-12-29T12:49:29;12.00;99.90
37998;DHT22;24079;51.824;4.682;2023-12-29T12:51:56;11.90;99.90
37998;DHT22;24079;51.824;4.682;2023-12-29T12:54:22;11.90;99.90
37998;DHT22;24079;51.824;4.682;2023-12-29T12:56:49;11.90;99.90
37998;DHT22;24079;51.824;4.682;2023-12-29T12:59:15;11.90;99.90
37998;DHT22;24079;51.824;4.682;2023-12-29T13:01:42;11.90;99.90
37998;DHT22;24079;51.824;4.682;2023-12-29T13:04:09;11.90;99.90
37998;DHT22;24079;51.824;4.682;2023-12-29T13:06:40;11.90;99.90
37998;DHT22;24079;51.824;4.682;2023-12-29T13:09:07;11.90;99.90
37998;DHT22;24079;51.824;4.682;2023-12-29T13:11:37;11.80;99.90
37998;DHT22;24079;51.824;4.682;2023-12-29T13:14:03;11.80;99.90
37998;DHT22;24079;51.824;4.682;2023-12-29T13:16:35;11.80;99.90
37998;DHT22;24079;51.824;4.682;2023-12-29T13:19:21;11.80;99.90
37998;DHT22;24079;51.824;4.682;2023-12-29T13:21:54;11.80;99.90
37998;DHT22;24079;51.824;4.682;2023-12-29T13:24:24;11.80;99.90
37998;DHT22;24079;51.824;4.682;2023-12-29T13:26:52;11.80;99.90
37998;DHT22;24079;51.824;4.682;2023-12-29T13:29:21;11.70;99.90
37998;DHT22;24079;51.824;4.682;2023-12-29T13:31:52;11.70;99.90
37998;DHT22;24079;51.824;4.682;2023-12-29T13:34:35;11.80;99.90
37998;DHT22;24079;51.824;4.682;2023-12-29T13:37:21;11.80;99.90
37998;DHT22;24079;51.824;4.682;2023-12-29T13:42:29;11.70;99.90
37998;DHT22;24079;51.824;4.682;2023-12-29T13:44:57;11.70;99.90
37998;DHT22;24079;51.824;4.682;2023-12-29T13:47:25;11.70;99.90
37998;DHT22;24079;51.824;4.682;2023-12-29T13:49:51;11.70;99.90
37998;DHT22;24079;51.824;4.682;2023-12-29T13:52:17;11.70;99.90
37998;DHT22;24079;51.824;4.682;2023-12-29T13:54:44;11.60;99.90
37998;DHT22;24079;51.824;4.682;2023-12-29T13:57:10;11.50;99.90
37998;DHT22;24079;51.824;4.682;2023-12-29T13:59:36;11.50;99.90
37998;DHT22;24079;51.824;4.682;2023-12-29T14:02:27;11.50;99.90
37998;DHT22;24079;51.824;4.682;2023-12-29T14:07:52;11.50;99.90
37998;DHT22;24079;51.824;4.682;2023-12-29T14:10:18;11.50;99.90
37998;DHT22;24079;51.824;4.682;2023-12-29T14:12:45;11.50;99.90
37998;DHT22;24079;51.824;4.682;2023-12-29T14:15:11;11.50;99.90
37998;DHT22;24079;51.824;4.682;2023-12-29T14:17:38;11.60;99.90
37998;DHT22;24079;51.824;4.682;2023-12-29T14:20:08;11.60;99.90
37998;DHT22;24079;51.824;4.682;2023-12-29T14:22:35;11.50;99.90
37998;DHT22;24079;51.824;4.682;2023-12-29T14:25:05;11.50;99.90
37998;DHT22;24079;51.824;4.682;2023-12-29T14:27:31;11.50;99.90
37998;DHT22;24079;51.824;4.682;2023-12-29T14:29:57;11.50;99.90
37998;DHT22;24079;51.824;4.682;2023-12-29T14:32:24;11.50;99.90
37998;DHT22;24079;51.824;4.682;2023-12-29T14:34:51;11.50;99.90
37998;DHT22;24079;51.824;4.682;2023-12-29T14:37:19;11.40;99.90
37998;DHT22;24079;51.824;4.682;2023-12-29T14:39:52;11.50;99.90
37998;DHT22;24079;51.824;4.682;2023-12-29T14:42:18;11.50;99.90
37998;DHT22;24079;51.824;4.682;2023-12-29T14:44:47;11.50;99.90
37998;DHT22;24079;51.824;4.682;2023-12-29T14:47:16;11.50;99.90
37998;DHT22;24079;51.824;4.682;2023-12-29T14:49:43;11.50;99.90
37998;DHT22;24079;51.824;4.682;2023-12-29T14:52:09;11.60;99.90
37998;DHT22;24079;51.824;4.682;2023-12-29T14:54:35;11.50;99.90
37998;DHT22;24079;51.824;4.682;2023-12-29T14:57:01;11.50;99.90
37998;DHT22;24079;51.824;4.682;2023-12-29T14:59:27;11.50;99.90
37998;DHT22;24079;51.824;4.682;2023-12-29T15:01:53;11.50;99.90
37998;DHT22;24079;51.824;4.682;2023-12-29T15:04:19;11.40;99.90
37998;DHT22;24079;51.824;4.682;2023-12-29T15:06:45;11.40;99.90
37998;DHT22;24079;51.824;4.682;2023-12-29T15:09:10;11.40;99.90
37998;DHT22;24079;51.824;4.682;2023-12-29T15:11:37;11.30;99.90
37998;DHT22;24079;51.824;4.682;2023-12-29T15:14:03;11.30;99.90
37998;DHT22;24079;51.824;4.682;2023-12-29T15:16:30;11.40;99.90
37998;DHT22;24079;51.824;4.682;2023-12-29T15:18:55;11.30;99.90
37998;DHT22;24079;51.824;4.682;2023-12-29T15:21:21;11.40;99.90
37998;DHT22;24079;51.824;4.682;2023-12-29T15:23:46;11.30;99.90
37998;DHT22;24079;51.824;4.682;2023-12-29T15:26:12;11.30;99.90
37998;DHT22;24079;51.824;4.682;2023-12-29T15:28:40;11.40;99.90
37998;DHT22;24079;51.824;4.682;2023-12-29T15:31:07;11.40;99.90
37998;DHT22;24079;51.824;4.682;2023-12-29T15:33:32;11.40;99.90
37998;DHT22;24079;51.824;4.682;2023-12-29T15:35:58;11.40;99.90
37998;DHT22;24079;51.824;4.682;2023-12-29T15:38:24;11.40;99.90
37998;DHT22;24079;51.824;4.682;2023-12-29T15:40:49;11.40;99.90
37998;DHT22;24079;51.824;4.682;2023-12-29T15:43:15;11.30;99.90
37998;DHT22;24079;51.824;4.682;2023-12-29T15:45:40;11.30;99.90
37998;DHT22;24079;51.824;4.682;2023-12-29T15:48:06;11.20;99.90
37998;DHT22;24079;51.824;4.682;2023-12-29T15:50:32;11.20;99.90
37998;DHT22;24079;51.824;4.682;2023-12-29T15:52:58;11.20;99.90
37998;DHT22;24079;51.824;4.682;2023-12-29T15:55:24;11.30;99.90
37998;DHT22;24079;51.824;4.682;2023-12-29T15:57:50;11.20;99.90
37998;DHT22;24079;51.824;4.682;2023-12-29T16:00:17;11.20;99.90